sensor_id;sensor_type;location;lat;lon;timestamp;P1;durP1;ratioP1;P2;durP2;ratioP2
13432;SDS011;6789;47.678;9.158;2022-09-30T00:02:42;3.30;;;1.80;;
13432;SDS011;6789;47.678;9.158;2022-09-30T00:07:48;2.43;;;1.77;;
13432;SDS011;6789;47.678;9.158;2022-09-30T00:12:40;3.03;;;1.90;;
13432;SDS011;6789;47.678;9.158;2022-09-30T00:17:32;1.93;;;1.73;;
13432;SDS011;6789;47.678;9.158;2022-09-30T00:22:39;2.37;;;2.00;;
13432;SDS011;6789;47.678;9.158;2022-09-30T00:27:30;4.30;;;2.10;;
13432;SDS011;6789;47.678;9.158;2022-09-30T00:32:37;2.43;;;2.00;;
13432;SDS011;6789;47.678;9.158;2022-09-30T00:37:28;2.93;;;2.17;;
13432;SDS011;6789;47.678;9.158;2022-09-30T00:42:20;3.63;;;2.40;;
13432;SDS011;6789;47.678;9.158;2022-09-30T00:53:19;3.00;;;2.33;;
13432;SDS011;6789;47.678;9.158;2022-09-30T00:58:26;3.07;;;2.17;;
13432;SDS011;6789;47.678;9.158;2022-09-30T01:03:25;2.67;;;2.10;;
13432;SDS011;6789;47.678;9.158;2022-09-30T01:08:23;2.17;;;1.93;;
13432;SDS011;6789;47.678;9.158;2022-09-30T01:13:48;2.20;;;2.00;;
13432;SDS011;6789;47.678;9.158;2022-09-30T01:19:04;2.50;;;2.10;;
13432;SDS011;6789;47.678;9.158;2022-09-30T01:34:58;2.33;;;1.87;;
13432;SDS011;6789;47.678;9.158;2022-09-30T01:40:04;2.47;;;1.90;;
13432;SDS011;6789;47.678;9.158;2022-09-30T01:45:34;2.83;;;2.00;;
13432;SDS011;6789;47.678;9.158;2022-09-30T01:51:02;3.23;;;2.07;;
13432;SDS011;6789;47.678;9.158;2022-09-30T01:56:15;3.60;;;2.20;;
13432;SDS011;6789;47.678;9.158;2022-09-30T02:01:17;2.23;;;2.03;;
13432;SDS011;6789;47.678;9.158;2022-09-30T02:06:26;3.40;;;1.97;;
13432;SDS011;6789;47.678;9.158;2022-09-30T02:11:26;3.20;;;2.07;;
13432;SDS011;6789;47.678;9.158;2022-09-30T02:16:26;2.50;;;1.90;;
13432;SDS011;6789;47.678;9.158;2022-09-30T02:21:55;3.60;;;2.00;;
13432;SDS011;6789;47.678;9.158;2022-09-30T02:26:55;2.10;;;1.87;;
13432;SDS011;6789;47.678;9.158;2022-09-30T02:31:53;2.30;;;1.83;;
13432;SDS011;6789;47.678;9.158;2022-09-30T02:42:19;3.60;;;2.53;;
13432;SDS011;6789;47.678;9.158;2022-09-30T02:47:31;3.27;;;2.37;;
13432;SDS011;6789;47.678;9.158;2022-09-30T02:53:48;2.90;;;2.27;;
13432;SDS011;6789;47.678;9.158;2022-09-30T02:58:35;2.70;;;2.40;;
13432;SDS011;6789;47.678;9.158;2022-09-30T03:03:31;3.00;;;2.40;;
13432;SDS011;6789;47.678;9.158;2022-09-30T03:08:30;3.50;;;2.20;;
13432;SDS011;6789;47.678;9.158;2022-09-30T03:29:21;3.07;;;2.10;;
13432;SDS011;6789;47.678;9.158;2022-09-30T03:45:04;2.73;;;1.80;;
13432;SDS011;6789;47.678;9.158;2022-09-30T03:50:29;2.80;;;1.93;;
13432;SDS011;6789;47.678;9.158;2022-09-30T03:55:47;2.10;;;1.77;;
13432;SDS011;6789;47.678;9.158;2022-09-30T04:00:44;3.10;;;1.80;;
13432;SDS011;6789;47.678;9.158;2022-09-30T04:05:58;1.97;;;1.77;;
13432;SDS011;6789;47.678;9.158;2022-09-30T04:11:04;2.13;;;1.80;;
13432;SDS011;6789;47.678;9.158;2022-09-30T04:16:10;2.60;;;2.00;;
13432;SDS011;6789;47.678;9.158;2022-09-30T04:21:16;1.80;;;1.70;;
13432;SDS011;6789;47.678;9.158;2022-09-30T04:26:22;1.87;;;1.70;;
13432;SDS011;6789;47.678;9.158;2022-09-30T04:31:28;3.50;;;2.20;;
13432;SDS011;6789;47.678;9.158;2022-09-30T04:36:34;2.80;;;2.50;;
13432;SDS011;6789;47.678;9.158;2022-09-30T04:41:40;2.53;;;2.33;;
13432;SDS011;6789;47.678;9.158;2022-09-30T04:46:47;2.47;;;2.27;;
13432;SDS011;6789;47.678;9.158;2022-09-30T04:51:56;5.40;;;2.23;;
13432;SDS011;6789;47.678;9.158;2022-09-30T04:57:02;2.60;;;2.30;;
13432;SDS011;6789;47.678;9.158;2022-09-30T05:02:08;3.17;;;2.57;;
13432;SDS011;6789;47.678;9.158;2022-09-30T05:07:15;4.10;;;2.43;;
13432;SDS011;6789;47.678;9.158;2022-09-30T05:12:20;6.50;;;2.83;;
13432;SDS011;6789;47.678;9.158;2022-09-30T05:17:28;2.67;;;2.30;;
13432;SDS011;6789;47.678;9.158;2022-09-30T05:22:37;3.70;;;2.90;;
13432;SDS011;6789;47.678;9.158;2022-09-30T05:27:47;4.87;;;2.60;;
13432;SDS011;6789;47.678;9.158;2022-09-30T05:32:54;3.87;;;2.53;;
13432;SDS011;6789;47.678;9.158;2022-09-30T05:38:00;4.03;;;2.50;;
13432;SDS011;6789;47.678;9.158;2022-09-30T05:43:08;4.93;;;2.43;;
13432;SDS011;6789;47.678;9.158;2022-09-30T05:48:14;3.17;;;2.40;;
13432;SDS011;6789;47.678;9.158;2022-09-30T05:53:21;4.17;;;2.70;;
13432;SDS011;6789;47.678;9.158;2022-09-30T05:58:27;2.50;;;2.30;;
13432;SDS011;6789;47.678;9.158;2022-09-30T06:03:34;3.67;;;2.70;;
13432;SDS011;6789;47.678;9.158;2022-09-30T06:08:40;2.47;;;2.27;;
13432;SDS011;6789;47.678;9.158;2022-09-30T06:13:47;5.27;;;2.60;;
13432;SDS011;6789;47.678;9.158;2022-09-30T06:18:54;4.83;;;3.80;;
13432;SDS011;6789;47.678;9.158;2022-09-30T06:24:01;5.43;;;3.20;;
13432;SDS011;6789;47.678;9.158;2022-09-30T06:29:07;3.57;;;2.97;;
13432;SDS011;6789;47.678;9.158;2022-09-30T06:34:13;3.37;;;2.80;;
13432;SDS011;6789;47.678;9.158;2022-09-30T06:39:19;5.17;;;2.60;;
13432;SDS011;6789;47.678;9.158;2022-09-30T06:44:19;3.03;;;2.43;;
13432;SDS011;6789;47.678;9.158;2022-09-30T06:49:25;4.17;;;2.63;;
13432;SDS011;6789;47.678;9.158;2022-09-30T06:54:50;3.27;;;2.80;;
13432;SDS011;6789;47.678;9.158;2022-09-30T07:00:00;3.90;;;2.80;;
13432;SDS011;6789;47.678;9.158;2022-09-30T07:05:08;4.13;;;3.40;;
13432;SDS011;6789;47.678;9.158;2022-09-30T07:10:17;4.30;;;2.93;;
13432;SDS011;6789;47.678;9.158;2022-09-30T07:15:26;4.77;;;2.80;;
13432;SDS011;6789;47.678;9.158;2022-09-30T07:20:32;3.87;;;2.67;;
13432;SDS011;6789;47.678;9.158;2022-09-30T07:25:38;4.97;;;4.23;;
13432;SDS011;6789;47.678;9.158;2022-09-30T07:31:00;5.70;;;3.90;;
13432;SDS011;6789;47.678;9.158;2022-09-30T07:36:13;5.90;;;3.57;;
13432;SDS011;6789;47.678;9.158;2022-09-30T07:41:26;5.00;;;4.13;;
13432;SDS011;6789;47.678;9.158;2022-09-30T07:46:35;5.40;;;3.93;;
13432;SDS011;6789;47.678;9.158;2022-09-30T07:51:44;8.13;;;3.70;;
13432;SDS011;6789;47.678;9.158;2022-09-30T07:56:50;5.10;;;4.03;;
13432;SDS011;6789;47.678;9.158;2022-09-30T08:01:57;5.60;;;4.40;;
13432;SDS011;6789;47.678;9.158;2022-09-30T08:07:03;4.43;;;3.77;;
13432;SDS011;6789;47.678;9.158;2022-09-30T08:12:10;4.77;;;3.53;;
13432;SDS011;6789;47.678;9.158;2022-09-30T08:17:16;5.27;;;3.70;;
13432;SDS011;6789;47.678;9.158;2022-09-30T08:22:21;4.87;;;3.43;;
13432;SDS011;6789;47.678;9.158;2022-09-30T08:27:28;4.70;;;3.70;;
13432;SDS011;6789;47.678;9.158;2022-09-30T08:32:33;4.13;;;3.43;;
13432;SDS011;6789;47.678;9.158;2022-09-30T08:37:40;3.57;;;2.87;;
13432;SDS011;6789;47.678;9.158;2022-09-30T08:53:40;4.27;;;2.50;;
13432;SDS011;6789;47.678;9.158;2022-09-30T08:58:52;2.13;;;1.90;;
13432;SDS011;6789;47.678;9.158;2022-09-30T09:04:06;2.40;;;2.10;;
13432;SDS011;6789;47.678;9.158;2022-09-30T09:20:12;2.07;;;1.73;;
13432;SDS011;6789;47.678;9.158;2022-09-30T09:25:24;1.90;;;1.80;;
13432;SDS011;6789;47.678;9.158;2022-09-30T09:30:43;2.33;;;1.60;;
13432;SDS011;6789;47.678;9.158;2022-09-30T09:42:26;1.90;;;1.70;;
13432;SDS011;6789;47.678;9.158;2022-09-30T09:47:13;3.63;;;2.03;;
13432;SDS011;6789;47.678;9.158;2022-09-30T09:58:13;2.60;;;2.40;;
13432;SDS011;6789;47.678;9.158;2022-09-30T10:03:26;2.80;;;2.00;;
13432;SDS011;6789;47.678;9.158;2022-09-30T10:08:33;3.03;;;2.70;;
13432;SDS011;6789;47.678;9.158;2022-09-30T10:13:44;4.10;;;2.67;;
13432;SDS011;6789;47.678;9.158;2022-09-30T10:18:52;2.40;;;1.90;;
13432;SDS011;6789;47.678;9.158;2022-09-30T10:23:59;2.10;;;1.90;;
13432;SDS011;6789;47.678;9.158;2022-09-30T10:29:37;2.70;;;2.00;;
13432;SDS011;6789;47.678;9.158;2022-09-30T10:35:01;2.15;;;1.95;;
13432;SDS011;6789;47.678;9.158;2022-09-30T10:40:31;2.07;;;1.87;;
13432;SDS011;6789;47.678;9.158;2022-09-30T10:45:43;1.50;;;1.40;;
13432;SDS011;6789;47.678;9.158;2022-09-30T10:50:50;1.30;;;1.20;;
13432;SDS011;6789;47.678;9.158;2022-09-30T10:55:59;1.20;;;1.10;;
13432;SDS011;6789;47.678;9.158;2022-09-30T11:01:29;1.30;;;1.20;;
13432;SDS011;6789;47.678;9.158;2022-09-30T11:06:45;1.17;;;1.07;;
13432;SDS011;6789;47.678;9.158;2022-09-30T11:12:22;1.13;;;1.10;;
13432;SDS011;6789;47.678;9.158;2022-09-30T11:17:51;1.50;;;1.08;;
13432;SDS011;6789;47.678;9.158;2022-09-30T11:23:28;1.02;;;0.95;;
13432;SDS011;6789;47.678;9.158;2022-09-30T11:34:15;0.88;;;0.88;;
13432;SDS011;6789;47.678;9.158;2022-09-30T11:45:28;0.90;;;0.90;;
13432;SDS011;6789;47.678;9.158;2022-09-30T11:50:48;1.73;;;1.08;;
13432;SDS011;6789;47.678;9.158;2022-09-30T12:01:49;0.80;;;0.80;;
13432;SDS011;6789;47.678;9.158;2022-09-30T12:07:16;1.55;;;0.90;;
13432;SDS011;6789;47.678;9.158;2022-09-30T12:12:43;0.65;;;0.65;;
13432;SDS011;6789;47.678;9.158;2022-09-30T12:18:04;0.70;;;0.70;;
13432;SDS011;6789;47.678;9.158;2022-09-30T12:23:31;1.15;;;1.08;;
13432;SDS011;6789;47.678;9.158;2022-09-30T12:28:53;0.73;;;0.73;;
13432;SDS011;6789;47.678;9.158;2022-09-30T12:52:31;1.25;;;1.00;;
13432;SDS011;6789;47.678;9.158;2022-09-30T12:57:42;0.80;;;0.73;;
13432;SDS011;6789;47.678;9.158;2022-09-30T13:02:54;1.00;;;0.90;;
13432;SDS011;6789;47.678;9.158;2022-09-30T13:13:28;1.33;;;1.23;;
13432;SDS011;6789;47.678;9.158;2022-09-30T13:23:53;2.42;;;1.40;;
13432;SDS011;6789;47.678;9.158;2022-09-30T13:34:11;1.17;;;1.08;;
13432;SDS011;6789;47.678;9.158;2022-09-30T13:39:27;1.67;;;1.58;;
13432;SDS011;6789;47.678;9.158;2022-09-30T13:45:03;1.58;;;1.48;;
13432;SDS011;6789;47.678;9.158;2022-09-30T13:50:20;5.13;;;1.52;;
13432;SDS011;6789;47.678;9.158;2022-09-30T13:55:44;1.20;;;1.10;;
13432;SDS011;6789;47.678;9.158;2022-09-30T14:06:32;1.67;;;1.58;;
13432;SDS011;6789;47.678;9.158;2022-09-30T14:24:28;1.70;;;1.60;;
13432;SDS011;6789;47.678;9.158;2022-09-30T14:30:02;1.70;;;1.60;;
13432;SDS011;6789;47.678;9.158;2022-09-30T14:35:34;2.47;;;1.80;;
13432;SDS011;6789;47.678;9.158;2022-09-30T14:40:48;2.60;;;1.73;;
13432;SDS011;6789;47.678;9.158;2022-09-30T14:45:57;1.73;;;1.63;;
13432;SDS011;6789;47.678;9.158;2022-09-30T14:51:37;1.95;;;1.48;;
13432;SDS011;6789;47.678;9.158;2022-09-30T14:56:49;1.70;;;1.60;;
13432;SDS011;6789;47.678;9.158;2022-09-30T15:01:58;1.95;;;1.52;;
13432;SDS011;6789;47.678;9.158;2022-09-30T15:07:13;1.77;;;1.67;;
13432;SDS011;6789;47.678;9.158;2022-09-30T15:12:20;2.28;;;1.85;;
13432;SDS011;6789;47.678;9.158;2022-09-30T15:17:37;1.10;;;1.00;;
13432;SDS011;6789;47.678;9.158;2022-09-30T15:22:42;1.00;;;0.90;;
13432;SDS011;6789;47.678;9.158;2022-09-30T15:27:50;1.40;;;1.20;;
13432;SDS011;6789;47.678;9.158;2022-09-30T15:32:57;1.52;;;1.40;;
13432;SDS011;6789;47.678;9.158;2022-09-30T15:38:17;1.85;;;1.20;;
13432;SDS011;6789;47.678;9.158;2022-09-30T15:43:32;1.50;;;1.20;;
13432;SDS011;6789;47.678;9.158;2022-09-30T15:48:48;1.70;;;1.60;;
13432;SDS011;6789;47.678;9.158;2022-09-30T15:53:54;3.67;;;2.00;;
13432;SDS011;6789;47.678;9.158;2022-09-30T15:59:06;2.67;;;1.90;;
13432;SDS011;6789;47.678;9.158;2022-09-30T16:09:29;3.00;;;1.90;;
13432;SDS011;6789;47.678;9.158;2022-09-30T16:14:42;4.00;;;1.80;;
13432;SDS011;6789;47.678;9.158;2022-09-30T16:20:06;2.58;;;1.92;;
13432;SDS011;6789;47.678;9.158;2022-09-30T16:25:26;2.90;;;2.13;;
13432;SDS011;6789;47.678;9.158;2022-09-30T16:30:40;2.10;;;1.90;;
13432;SDS011;6789;47.678;9.158;2022-09-30T16:35:50;2.17;;;1.95;;
13432;SDS011;6789;47.678;9.158;2022-09-30T16:40:56;2.83;;;2.20;;
13432;SDS011;6789;47.678;9.158;2022-09-30T16:46:04;2.90;;;2.10;;
13432;SDS011;6789;47.678;9.158;2022-09-30T16:51:13;2.10;;;1.80;;
13432;SDS011;6789;47.678;9.158;2022-09-30T16:56:21;3.20;;;1.80;;
13432;SDS011;6789;47.678;9.158;2022-09-30T17:01:27;2.03;;;1.83;;
13432;SDS011;6789;47.678;9.158;2022-09-30T17:06:33;4.70;;;2.17;;
13432;SDS011;6789;47.678;9.158;2022-09-30T17:11:28;2.73;;;2.13;;
13432;SDS011;6789;47.678;9.158;2022-09-30T17:16:24;3.00;;;2.07;;
13432;SDS011;6789;47.678;9.158;2022-09-30T17:21:30;2.40;;;2.20;;
13432;SDS011;6789;47.678;9.158;2022-09-30T17:26:36;2.80;;;2.20;;
13432;SDS011;6789;47.678;9.158;2022-09-30T17:31:32;3.17;;;2.10;;
13432;SDS011;6789;47.678;9.158;2022-09-30T17:36:38;5.93;;;2.77;;
13432;SDS011;6789;47.678;9.158;2022-09-30T17:41:39;5.00;;;2.80;;
13432;SDS011;6789;47.678;9.158;2022-09-30T17:46:51;4.00;;;2.50;;
13432;SDS011;6789;47.678;9.158;2022-09-30T17:52:04;6.50;;;4.00;;
13432;SDS011;6789;47.678;9.158;2022-09-30T17:57:12;11.00;;;6.03;;
13432;SDS011;6789;47.678;9.158;2022-09-30T18:02:18;11.13;;;6.53;;
13432;SDS011;6789;47.678;9.158;2022-09-30T18:07:13;36.43;;;20.97;;
13432;SDS011;6789;47.678;9.158;2022-09-30T18:12:19;9.37;;;5.60;;
13432;SDS011;6789;47.678;9.158;2022-09-30T18:17:25;8.13;;;5.20;;
13432;SDS011;6789;47.678;9.158;2022-09-30T18:22:32;7.77;;;5.60;;
13432;SDS011;6789;47.678;9.158;2022-09-30T18:27:26;8.37;;;5.33;;
13432;SDS011;6789;47.678;9.158;2022-09-30T18:32:25;7.83;;;5.00;;
13432;SDS011;6789;47.678;9.158;2022-09-30T18:37:32;7.17;;;4.53;;
13432;SDS011;6789;47.678;9.158;2022-09-30T18:42:38;9.73;;;5.77;;
13432;SDS011;6789;47.678;9.158;2022-09-30T18:47:44;18.07;;;9.40;;
13432;SDS011;6789;47.678;9.158;2022-09-30T19:03:57;7.00;;;4.33;;
13432;SDS011;6789;47.678;9.158;2022-09-30T19:09:07;9.10;;;5.73;;
13432;SDS011;6789;47.678;9.158;2022-09-30T19:14:12;6.20;;;3.87;;
13432;SDS011;6789;47.678;9.158;2022-09-30T19:19:20;6.10;;;4.37;;
13432;SDS011;6789;47.678;9.158;2022-09-30T19:24:27;6.27;;;4.33;;
13432;SDS011;6789;47.678;9.158;2022-09-30T19:29:36;7.13;;;5.07;;
13432;SDS011;6789;47.678;9.158;2022-09-30T19:34:46;13.50;;;8.33;;
13432;SDS011;6789;47.678;9.158;2022-09-30T19:39:53;6.70;;;4.07;;
13432;SDS011;6789;47.678;9.158;2022-09-30T19:45:11;8.73;;;5.83;;
13432;SDS011;6789;47.678;9.158;2022-09-30T19:50:17;6.23;;;3.97;;
13432;SDS011;6789;47.678;9.158;2022-09-30T19:55:23;5.70;;;4.00;;
13432;SDS011;6789;47.678;9.158;2022-09-30T20:00:17;5.40;;;3.47;;
13432;SDS011;6789;47.678;9.158;2022-09-30T20:05:23;8.27;;;4.37;;
13432;SDS011;6789;47.678;9.158;2022-09-30T20:10:24;5.13;;;3.60;;
13432;SDS011;6789;47.678;9.158;2022-09-30T20:15:17;6.37;;;3.40;;
13432;SDS011;6789;47.678;9.158;2022-09-30T20:20:42;5.43;;;3.50;;
13432;SDS011;6789;47.678;9.158;2022-09-30T20:25:53;7.43;;;4.13;;
13432;SDS011;6789;47.678;9.158;2022-09-30T20:31:03;7.10;;;4.70;;
13432;SDS011;6789;47.678;9.158;2022-09-30T20:36:11;5.30;;;4.30;;
13432;SDS011;6789;47.678;9.158;2022-09-30T20:41:17;8.27;;;5.30;;
13432;SDS011;6789;47.678;9.158;2022-09-30T20:46:23;10.30;;;4.77;;
13432;SDS011;6789;47.678;9.158;2022-09-30T20:51:19;7.40;;;5.00;;
13432;SDS011;6789;47.678;9.158;2022-09-30T20:56:27;6.20;;;4.13;;
13432;SDS011;6789;47.678;9.158;2022-09-30T21:01:34;6.27;;;4.53;;
13432;SDS011;6789;47.678;9.158;2022-09-30T21:06:55;5.73;;;4.57;;
13432;SDS011;6789;47.678;9.158;2022-09-30T21:11:50;5.87;;;4.50;;
13432;SDS011;6789;47.678;9.158;2022-09-30T21:16:56;7.53;;;4.90;;
13432;SDS011;6789;47.678;9.158;2022-09-30T21:22:02;10.07;;;5.40;;
13432;SDS011;6789;47.678;9.158;2022-09-30T21:27:12;8.17;;;5.60;;
13432;SDS011;6789;47.678;9.158;2022-09-30T21:32:18;7.07;;;5.40;;
13432;SDS011;6789;47.678;9.158;2022-09-30T21:37:24;7.03;;;5.23;;
13432;SDS011;6789;47.678;9.158;2022-09-30T21:42:31;9.80;;;5.13;;
13432;SDS011;6789;47.678;9.158;2022-09-30T21:47:38;12.70;;;5.77;;
13432;SDS011;6789;47.678;9.158;2022-09-30T21:52:44;9.57;;;5.13;;
13432;SDS011;6789;47.678;9.158;2022-09-30T21:57:51;10.53;;;4.63;;
13432;SDS011;6789;47.678;9.158;2022-09-30T22:02:59;5.63;;;4.10;;
13432;SDS011;6789;47.678;9.158;2022-09-30T22:08:07;5.90;;;3.80;;
13432;SDS011;6789;47.678;9.158;2022-09-30T22:13:14;6.10;;;3.80;;
13432;SDS011;6789;47.678;9.158;2022-09-30T22:18:20;5.93;;;3.67;;
13432;SDS011;6789;47.678;9.158;2022-09-30T22:23:26;4.17;;;3.50;;
13432;SDS011;6789;47.678;9.158;2022-09-30T22:28:32;5.67;;;3.73;;
13432;SDS011;6789;47.678;9.158;2022-09-30T22:33:39;5.90;;;3.67;;
13432;SDS011;6789;47.678;9.158;2022-09-30T22:39:05;6.67;;;3.80;;
13432;SDS011;6789;47.678;9.158;2022-09-30T22:44:12;5.77;;;3.70;;
13432;SDS011;6789;47.678;9.158;2022-09-30T22:49:18;5.70;;;4.40;;
13432;SDS011;6789;47.678;9.158;2022-09-30T22:54:25;9.47;;;6.13;;
13432;SDS011;6789;47.678;9.158;2022-09-30T22:59:33;16.63;;;7.70;;
13432;SDS011;6789;47.678;9.158;2022-09-30T23:04:40;14.87;;;8.30;;
13432;SDS011;6789;47.678;9.158;2022-09-30T23:09:48;13.77;;;6.87;;
13432;SDS011;6789;47.678;9.158;2022-09-30T23:14:53;9.83;;;6.30;;
13432;SDS011;6789;47.678;9.158;2022-09-30T23:20:01;11.80;;;5.50;;
13432;SDS011;6789;47.678;9.158;2022-09-30T23:25:09;7.80;;;4.80;;
13432;SDS011;6789;47.678;9.158;2022-09-30T23:30:16;7.40;;;4.57;;
13432;SDS011;6789;47.678;9.158;2022-09-30T23:35:22;9.27;;;4.70;;
13432;SDS011;6789;47.678;9.158;2022-09-30T23:40:28;8.93;;;5.40;;
13432;SDS011;6789;47.678;9.158;2022-09-30T23:45:35;6.73;;;4.53;;
13432;SDS011;6789;47.678;9.158;2022-09-30T23:50:42;6.23;;;4.03;;
13432;SDS011;6789;47.678;9.158;2022-09-30T23:55:55;7.13;;;4.50;;
